createdAt,value
2024-02-15T00:00:55.244Z,11.17
2024-02-15T00:03:22.724Z,11.73
2024-02-15T00:05:49.580Z,12.00
2024-02-15T00:08:16.643Z,11.70
2024-02-15T00:10:43.639Z,11.13
2024-02-15T00:13:11.508Z,11.37
2024-02-15T00:15:38.828Z,11.37
2024-02-15T00:18:07.096Z,11.87
2024-02-15T00:20:37.059Z,10.30
2024-02-15T00:23:03.843Z,11.43
2024-02-15T00:25:31.703Z,11.50
2024-02-15T00:27:58.364Z,11.93
2024-02-15T00:30:25.126Z,12.40
2024-02-15T00:32:52.664Z,12.07
2024-02-15T00:35:19.873Z,9.80
2024-02-15T00:37:46.932Z,11.70
2024-02-15T00:40:13.548Z,10.13
2024-02-15T00:42:40.533Z,10.67
2024-02-15T00:45:09.584Z,10.57
2024-02-15T00:47:40.225Z,10.47
2024-02-15T00:50:07.882Z,11.03
2024-02-15T00:52:35.520Z,11.07
2024-02-15T00:55:02.365Z,11.00
2024-02-15T00:57:29.173Z,11.87
2024-02-15T00:59:55.730Z,12.03
2024-02-15T01:02:25.223Z,11.73
2024-02-15T01:04:55.279Z,11.43
2024-02-15T01:07:21.804Z,10.57
2024-02-15T01:09:48.336Z,12.33
2024-02-15T01:12:14.806Z,11.43
2024-02-15T01:14:41.686Z,10.67
2024-02-15T01:17:09.030Z,10.53
2024-02-15T01:19:36.610Z,11.40
2024-02-15T01:22:03.797Z,12.20
2024-02-15T01:24:31.478Z,11.47
2024-02-15T01:26:58.931Z,11.77
2024-02-15T01:29:26.882Z,10.77
2024-02-15T01:31:53.822Z,12.40
2024-02-15T01:34:20.765Z,10.23
2024-02-15T01:36:49.608Z,11.30
2024-02-15T01:39:20.097Z,11.13
2024-02-15T01:41:52.283Z,11.70
2024-02-15T01:44:24.077Z,10.27
2024-02-15T01:46:50.992Z,10.20
2024-02-15T01:49:17.929Z,10.70
2024-02-15T01:51:45.841Z,11.30
2024-02-15T01:54:14.632Z,10.93
2024-02-15T01:56:41.291Z,10.17
2024-02-15T01:59:07.790Z,10.70
2024-02-15T02:01:34.526Z,10.60
2024-02-15T02:04:01.756Z,10.83
2024-02-15T02:06:29.125Z,9.87
2024-02-15T02:08:57.751Z,10.43
2024-02-15T02:11:25.452Z,11.60
2024-02-15T02:13:53.102Z,10.60
2024-02-15T02:16:30.770Z,11.60
2024-02-15T02:18:58.352Z,11.73
2024-02-15T02:21:28.625Z,11.20
2024-02-15T02:23:59.256Z,11.17
2024-02-15T02:26:26.840Z,10.53
2024-02-15T02:28:56.848Z,11.50
2024-02-15T02:31:23.477Z,12.17
2024-02-15T02:33:55.690Z,11.60
2024-02-15T02:36:22.946Z,11.27
2024-02-15T02:38:51.704Z,11.33
2024-02-15T02:41:20.536Z,11.53
2024-02-15T02:43:47.091Z,12.20
2024-02-15T02:46:14.594Z,12.07
2024-02-15T02:48:42.928Z,12.53
2024-02-15T02:51:09.668Z,11.50
2024-02-15T02:53:37.027Z,12.37
2024-02-15T02:56:05.037Z,13.20
2024-02-15T02:58:31.869Z,12.40
2024-02-15T03:01:01.702Z,11.90
2024-02-15T03:03:28.629Z,12.70
2024-02-15T03:05:58.465Z,11.87
2024-02-15T03:08:25.554Z,12.40
2024-02-15T03:10:52.351Z,12.50
2024-02-15T03:13:20.255Z,12.50
2024-02-15T03:15:49.055Z,11.77
2024-02-15T03:18:17.670Z,12.60
2024-02-15T03:20:44.799Z,14.00
2024-02-15T03:23:12.755Z,13.13
2024-02-15T03:25:39.629Z,13.13
2024-02-15T03:28:06.283Z,12.37
2024-02-15T03:30:35.772Z,12.50
2024-02-15T03:33:06.853Z,12.77
2024-02-15T03:35:34.504Z,12.63
2024-02-15T03:38:02.107Z,12.70
2024-02-15T03:40:28.908Z,12.23
2024-02-15T03:42:56.024Z,11.60
2024-02-15T03:45:27.159Z,13.37
2024-02-15T03:47:54.538Z,12.30
2024-02-15T03:50:23.020Z,11.57
2024-02-15T03:52:51.281Z,13.10
2024-02-15T03:55:18.477Z,11.67
2024-02-15T03:57:46.289Z,12.43
2024-02-15T04:00:23.150Z,12.50
2024-02-15T04:02:51.184Z,12.10
2024-02-15T04:05:20.214Z,12.20
2024-02-15T04:07:47.391Z,12.33
2024-02-15T04:10:14.017Z,12.87
2024-02-15T04:12:43.546Z,11.83
2024-02-15T04:15:14.407Z,13.07
2024-02-15T04:17:42.577Z,13.53
2024-02-15T04:20:11.382Z,12.87
2024-02-15T04:22:38.518Z,13.50
2024-02-15T04:25:11.563Z,12.40
2024-02-15T04:27:38.302Z,12.97
2024-02-15T04:30:05.584Z,12.63
2024-02-15T04:32:35.203Z,12.93
2024-02-15T04:35:03.722Z,13.83
2024-02-15T04:37:33.594Z,12.90
2024-02-15T04:40:08.966Z,13.13
2024-02-15T04:42:35.638Z,13.00
2024-02-15T04:45:02.788Z,12.23
2024-02-15T04:47:31.433Z,12.67
2024-02-15T04:49:58.079Z,12.83
2024-02-15T04:52:25.360Z,13.70
2024-02-15T04:54:52.329Z,13.70
2024-02-15T04:57:18.892Z,14.53
2024-02-15T04:59:48.392Z,13.37
2024-02-15T05:02:15.232Z,13.50
2024-02-15T05:04:43.859Z,12.37
2024-02-15T05:07:11.187Z,13.00
2024-02-15T05:09:37.973Z,13.10
2024-02-15T05:12:06.656Z,13.10
2024-02-15T05:14:34.149Z,12.17
2024-02-15T05:17:00.758Z,13.53
2024-02-15T05:19:28.752Z,13.10
2024-02-15T05:21:56.492Z,12.13
2024-02-15T05:24:23.342Z,11.67
2024-02-15T05:26:50.324Z,11.80
2024-02-15T05:29:18.076Z,12.53
2024-02-15T05:31:44.542Z,11.43
2024-02-15T05:34:15.755Z,12.27
2024-02-15T05:36:42.656Z,12.53
2024-02-15T05:39:09.442Z,10.67
2024-02-15T05:41:37.216Z,10.40
2024-02-15T05:44:08.008Z,12.53
2024-02-15T05:46:39.048Z,11.87
2024-02-15T05:49:06.430Z,11.70
2024-02-15T05:51:35.060Z,11.77
2024-02-15T05:54:02.489Z,11.90
2024-02-15T05:56:30.467Z,10.87
2024-02-15T05:58:57.188Z,11.20
2024-02-15T06:01:25.424Z,11.03
2024-02-15T06:03:56.140Z,11.87
2024-02-15T06:06:23.194Z,12.23
2024-02-15T06:08:50.122Z,12.00
2024-02-15T06:11:21.848Z,10.83
2024-02-15T06:13:48.998Z,11.07
2024-02-15T06:16:15.790Z,11.13
2024-02-15T06:18:42.726Z,11.53
2024-02-15T06:21:10.095Z,12.67
2024-02-15T06:23:37.263Z,12.40
2024-02-15T06:26:05.300Z,14.20
2024-02-15T06:28:52.149Z,13.07
2024-02-15T06:31:37.046Z,12.63
2024-02-15T06:34:22.376Z,13.70
2024-02-15T06:37:13.812Z,13.00
2024-02-15T06:39:43.788Z,12.17
2024-02-15T06:42:22.152Z,13.00
2024-02-15T06:44:50.080Z,13.27
2024-02-15T06:47:19.413Z,13.17
2024-02-15T06:49:47.707Z,12.53
2024-02-15T06:52:15.143Z,11.37
2024-02-15T06:54:43.121Z,12.77
2024-02-15T06:57:10.252Z,12.13
2024-02-15T06:59:38.373Z,13.60
2024-02-15T07:02:09.477Z,12.60
2024-02-15T07:04:38.518Z,13.10
2024-02-15T07:07:05.883Z,13.37
2024-02-15T07:09:33.660Z,14.17
2024-02-15T07:12:00.485Z,14.27
2024-02-15T07:14:29.299Z,12.87
2024-02-15T07:16:59.819Z,12.10
2024-02-15T07:19:29.147Z,14.30
2024-02-15T07:21:57.993Z,16.00
2024-02-15T07:24:28.205Z,14.00
2024-02-15T07:26:56.705Z,13.90
2024-02-15T07:29:24.905Z,13.23
2024-02-15T07:31:52.357Z,14.67
2024-02-15T07:34:19.343Z,15.00
2024-02-15T07:36:46.693Z,14.43
2024-02-15T07:39:14.816Z,14.43
2024-02-15T07:41:42.141Z,13.37
2024-02-15T07:44:09.477Z,14.00
2024-02-15T07:46:36.497Z,14.37
2024-02-15T07:49:03.342Z,14.57
2024-02-15T07:51:30.272Z,13.63
2024-02-15T07:53:57.571Z,14.40
2024-02-15T07:56:24.092Z,14.07
2024-02-15T07:58:54.104Z,12.80
2024-02-15T08:01:25.647Z,14.30
2024-02-15T08:03:55.013Z,14.33
2024-02-15T08:06:26.394Z,13.97
2024-02-15T08:08:53.740Z,14.77
2024-02-15T08:11:20.642Z,14.90
2024-02-15T08:13:51.635Z,13.93
2024-02-15T08:16:20.549Z,13.70
2024-02-15T08:18:48.389Z,13.30
2024-02-15T08:21:16.352Z,14.13
2024-02-15T08:23:44.399Z,14.60
2024-02-15T08:26:13.907Z,14.20
2024-02-15T08:28:40.409Z,13.30
2024-02-15T08:31:09.482Z,14.63
2024-02-15T08:33:37.336Z,13.20
2024-02-15T08:36:05.920Z,13.77
2024-02-15T08:38:32.472Z,13.50
2024-02-15T08:40:58.916Z,13.73
2024-02-15T08:43:25.580Z,13.37
2024-02-15T08:45:52.056Z,13.40
2024-02-15T08:48:18.762Z,12.73
2024-02-15T08:50:47.053Z,12.70
2024-02-15T08:53:13.757Z,13.30
2024-02-15T08:55:40.658Z,14.13
2024-02-15T08:58:07.194Z,13.67
2024-02-15T09:00:35.714Z,14.10
2024-02-15T09:03:03.828Z,12.87
2024-02-15T09:05:30.406Z,12.73
2024-02-15T09:07:57.228Z,13.33
2024-02-15T09:10:23.862Z,12.77
2024-02-15T09:12:51.116Z,11.93
2024-02-15T09:15:18.696Z,12.60
2024-02-15T09:17:47.370Z,12.33
2024-02-15T09:20:16.285Z,11.70
2024-02-15T09:22:50.483Z,11.73
2024-02-15T09:25:17.549Z,11.03
2024-02-15T09:27:49.214Z,11.53
2024-02-15T09:30:17.138Z,11.87
2024-02-15T09:32:44.688Z,11.97
2024-02-15T09:35:13.422Z,11.90
2024-02-15T09:37:50.502Z,11.50
2024-02-15T09:40:19.752Z,10.00
2024-02-15T09:42:48.494Z,11.13
2024-02-15T09:45:16.706Z,9.93
2024-02-15T09:47:46.068Z,10.40
2024-02-15T09:50:15.504Z,11.27
2024-02-15T09:52:46.954Z,11.63
2024-02-15T09:55:14.570Z,11.43
2024-02-15T09:57:45.705Z,11.17
2024-02-15T10:00:15.030Z,11.50
2024-02-15T10:02:45.830Z,10.77
2024-02-15T10:05:15.718Z,11.00
2024-02-15T10:07:45.410Z,10.40
2024-02-15T10:10:21.969Z,10.87
2024-02-15T10:12:49.749Z,11.00
2024-02-15T10:15:36.410Z,11.00
2024-02-15T10:18:05.687Z,10.80
2024-02-15T10:20:32.742Z,10.00
2024-02-15T10:23:02.119Z,10.50
2024-02-15T10:25:28.871Z,10.23
2024-02-15T10:28:09.531Z,10.23
2024-02-15T10:30:41.002Z,10.80
2024-02-15T10:33:11.778Z,11.07
2024-02-15T10:35:38.745Z,10.27
2024-02-15T10:38:17.215Z,9.90
2024-02-15T10:40:47.225Z,9.27
2024-02-15T10:43:14.965Z,9.33
2024-02-15T10:45:42.296Z,9.47
2024-02-15T10:48:14.390Z,9.20
2024-02-15T10:50:42.019Z,8.57
2024-02-15T10:53:28.600Z,9.10
2024-02-15T10:56:10.568Z,9.40
2024-02-15T10:58:48.027Z,8.57
2024-02-15T11:01:19.474Z,9.10
2024-02-15T11:03:56.008Z,9.27
2024-02-15T11:06:44.188Z,8.90
2024-02-15T11:09:12.486Z,8.23
2024-02-15T11:11:40.904Z,8.20
2024-02-15T11:14:30.370Z,8.23
2024-02-15T11:16:58.586Z,8.07
2024-02-15T11:19:37.626Z,7.40
2024-02-15T11:22:12.486Z,7.10
2024-02-15T11:24:47.580Z,7.53
2024-02-15T11:27:26.412Z,7.43
2024-02-15T11:30:04.325Z,8.40
2024-02-15T11:33:02.261Z,7.83
2024-02-15T11:35:31.145Z,7.90
2024-02-15T11:38:05.078Z,6.73
2024-02-15T11:40:51.674Z,6.93
2024-02-15T11:43:47.084Z,7.07
2024-02-15T11:46:15.680Z,7.27
2024-02-15T11:48:42.453Z,6.60
2024-02-15T11:51:12.523Z,6.33
2024-02-15T11:53:40.859Z,6.60
2024-02-15T11:56:11.175Z,6.00
2024-02-15T11:58:53.980Z,6.20
2024-02-15T12:01:39.273Z,6.00
2024-02-15T12:04:24.492Z,6.20
2024-02-15T12:07:16.146Z,6.10
2024-02-15T12:10:03.668Z,6.37
2024-02-15T12:12:50.529Z,6.27
2024-02-15T12:15:37.157Z,6.40
2024-02-15T12:18:38.339Z,5.80
2024-02-15T12:21:06.848Z,6.13
2024-02-15T12:23:37.009Z,6.60
2024-02-15T12:26:06.771Z,6.23
2024-02-15T12:28:33.352Z,6.50
2024-02-15T12:30:59.999Z,6.00
2024-02-15T12:33:28.719Z,5.70
2024-02-15T12:36:09.045Z,7.07
2024-02-15T12:38:38.590Z,6.50
2024-02-15T12:41:20.037Z,6.30
2024-02-15T12:43:46.547Z,6.97
2024-02-15T12:46:13.710Z,6.57
2024-02-15T12:48:42.061Z,6.87
2024-02-15T12:51:17.783Z,6.57
2024-02-15T12:53:49.923Z,7.20
2024-02-15T12:56:22.855Z,7.20
2024-02-15T12:58:49.296Z,7.10
2024-02-15T13:01:15.816Z,6.63
2024-02-15T13:03:42.290Z,7.37
2024-02-15T13:06:09.668Z,6.83
2024-02-15T13:08:37.498Z,6.70
2024-02-15T13:11:04.724Z,6.37
2024-02-15T13:13:31.540Z,6.17
2024-02-15T13:15:59.071Z,7.20
2024-02-15T13:18:27.620Z,7.13
2024-02-15T13:20:54.660Z,7.43
2024-02-15T13:23:26.338Z,7.43
2024-02-15T13:25:55.202Z,7.60
2024-02-15T13:28:21.734Z,7.47
2024-02-15T13:30:50.456Z,7.60
2024-02-15T13:33:18.378Z,7.50
2024-02-15T13:35:45.245Z,7.77
2024-02-15T13:38:16.521Z,6.80
2024-02-15T13:40:43.704Z,6.63
2024-02-15T13:43:10.489Z,7.20
2024-02-15T13:45:42.214Z,6.87
2024-02-15T13:48:11.394Z,6.57
2024-02-15T13:50:40.018Z,7.07
2024-02-15T13:53:11.277Z,6.53
2024-02-15T13:55:38.385Z,7.00
2024-02-15T13:58:07.391Z,6.87
2024-02-15T14:00:38.289Z,6.17
2024-02-15T14:03:08.232Z,6.60
2024-02-15T14:05:34.991Z,6.03
2024-02-15T14:08:03.660Z,6.13
2024-02-15T14:10:34.517Z,7.10
2024-02-15T14:13:02.662Z,6.17
2024-02-15T14:15:30.961Z,6.53
2024-02-15T14:17:58.646Z,5.33
2024-02-15T14:20:26.511Z,5.70
2024-02-15T14:22:57.672Z,5.90
2024-02-15T14:25:26.534Z,5.80
2024-02-15T14:27:55.172Z,6.00
2024-02-15T14:30:42.253Z,6.17
2024-02-15T14:35:47.060Z,6.00
2024-02-15T14:38:14.768Z,6.20
2024-02-15T14:40:49.050Z,6.03
2024-02-15T14:43:19.918Z,6.20
2024-02-15T14:45:47.341Z,5.97
2024-02-15T14:48:16.959Z,6.10
2024-02-15T14:50:44.404Z,5.90
2024-02-15T14:53:11.299Z,5.90
2024-02-15T14:55:40.238Z,5.27
2024-02-15T14:58:12.869Z,6.20
2024-02-15T15:00:43.046Z,5.63
2024-02-15T15:03:09.853Z,6.00
2024-02-15T15:05:54.932Z,5.40
2024-02-15T15:08:39.992Z,5.60
2024-02-15T15:11:25.055Z,5.00
2024-02-15T15:13:53.389Z,5.50
2024-02-15T15:16:22.325Z,5.27
2024-02-15T15:18:51.346Z,4.97
2024-02-15T15:21:18.042Z,5.00
2024-02-15T15:23:46.173Z,5.13
2024-02-15T15:26:20.738Z,5.20
2024-02-15T15:28:49.137Z,5.07
2024-02-15T15:31:16.551Z,5.83
2024-02-15T15:33:43.974Z,5.43
2024-02-15T15:36:11.938Z,5.60
2024-02-15T15:38:38.776Z,5.10
2024-02-15T15:41:10.205Z,5.50
2024-02-15T15:43:37.961Z,5.27
2024-02-15T15:46:05.498Z,5.40
2024-02-15T15:48:34.161Z,5.67
2024-02-15T15:51:02.134Z,5.17
2024-02-15T15:53:29.182Z,5.30
2024-02-15T15:55:55.882Z,5.10
2024-02-15T15:58:25.428Z,5.07
2024-02-15T16:00:52.161Z,4.70
2024-02-15T16:03:20.360Z,5.17
2024-02-15T16:05:50.932Z,4.97
2024-02-15T16:08:17.392Z,4.87
2024-02-15T16:10:43.827Z,4.83
2024-02-15T16:13:11.072Z,5.33
2024-02-15T16:15:39.139Z,4.77
2024-02-15T16:18:05.886Z,5.10
2024-02-15T16:20:32.587Z,5.20
2024-02-15T16:22:59.117Z,5.17
2024-02-15T16:25:25.895Z,5.30
2024-02-15T16:27:54.480Z,5.10
2024-02-15T16:30:20.911Z,5.23
2024-02-15T16:32:47.920Z,5.87
2024-02-15T16:35:16.074Z,6.03
2024-02-15T16:37:43.900Z,6.47
2024-02-15T16:40:13.889Z,5.50
2024-02-15T16:42:45.862Z,5.23
2024-02-15T16:45:20.807Z,5.10
2024-02-15T16:47:57.860Z,5.03
2024-02-15T16:50:26.462Z,4.70
2024-02-15T16:52:53.409Z,5.00
2024-02-15T16:55:20.894Z,5.17
2024-02-15T16:57:48.165Z,5.27
2024-02-15T17:00:19.153Z,5.20
2024-02-15T17:02:46.415Z,4.73
2024-02-15T17:05:13.240Z,5.17
2024-02-15T17:07:39.881Z,5.20
2024-02-15T17:10:07.297Z,6.57
2024-02-15T17:12:35.582Z,6.00
2024-02-15T17:15:02.136Z,7.10
2024-02-15T17:17:28.968Z,6.90
2024-02-15T17:19:55.573Z,13.60
2024-02-15T17:22:24.018Z,22.80
2024-02-15T17:24:53.846Z,21.47
2024-02-15T17:27:20.535Z,13.60
2024-02-15T17:29:47.204Z,11.97
2024-02-15T17:32:13.742Z,9.37
2024-02-15T17:34:40.366Z,7.83
2024-02-15T17:37:06.843Z,7.23
2024-02-15T17:39:33.429Z,6.60
2024-02-15T17:41:59.920Z,6.60
2024-02-15T17:44:26.443Z,6.37
2024-02-15T17:46:54.411Z,6.70
2024-02-15T17:49:21.062Z,5.80
2024-02-15T17:51:47.756Z,6.10
2024-02-15T17:54:15.647Z,5.70
2024-02-15T17:56:42.950Z,5.63
2024-02-15T17:59:11.616Z,5.50
2024-02-15T18:01:41.034Z,5.60
2024-02-15T18:04:07.640Z,5.00
2024-02-15T18:06:34.534Z,6.00
2024-02-15T18:09:01.381Z,7.07
2024-02-15T18:11:28.678Z,6.93
2024-02-15T18:13:56.325Z,14.93
2024-02-15T18:16:25.038Z,10.43
2024-02-15T18:18:53.368Z,8.53
2024-02-15T18:21:20.071Z,8.40
2024-02-15T18:23:49.924Z,8.20
2024-02-15T18:26:17.552Z,7.43
2024-02-15T18:28:44.248Z,7.90
2024-02-15T18:31:14.728Z,8.20
2024-02-15T18:33:42.798Z,6.60
2024-02-15T18:36:10.146Z,6.60
2024-02-15T18:38:37.304Z,7.10
2024-02-15T18:41:07.251Z,6.80
2024-02-15T18:43:36.964Z,6.50
2024-02-15T18:46:06.217Z,6.87
2024-02-15T18:48:33.070Z,6.80
2024-02-15T18:50:59.628Z,7.03
2024-02-15T18:53:27.017Z,6.47
2024-02-15T18:55:56.444Z,7.10
2024-02-15T18:58:26.696Z,8.37
2024-02-15T19:00:58.035Z,8.20
2024-02-15T19:03:25.947Z,8.53
2024-02-15T19:05:54.417Z,8.60
2024-02-15T19:08:21.097Z,8.67
2024-02-15T19:10:47.801Z,8.23
2024-02-15T19:13:14.741Z,7.90
2024-02-15T19:15:41.207Z,7.83
2024-02-15T19:18:08.214Z,7.13
2024-02-15T19:20:35.108Z,7.50
2024-02-15T19:23:01.591Z,7.67
2024-02-15T19:25:28.064Z,8.23
2024-02-15T19:27:54.669Z,7.53
2024-02-15T19:30:21.651Z,7.47
2024-02-15T19:32:50.318Z,6.97
2024-02-15T19:35:18.169Z,7.40
2024-02-15T19:37:47.833Z,7.17
2024-02-15T19:40:19.618Z,7.47
2024-02-15T19:42:49.197Z,7.13
2024-02-15T19:45:18.920Z,14.53
2024-02-15T19:47:50.485Z,66.03
2024-02-15T19:50:22.474Z,50.43
2024-02-15T19:52:50.123Z,36.27
2024-02-15T19:55:17.575Z,31.53
2024-02-15T19:57:44.458Z,23.33
2024-02-15T20:00:13.228Z,14.90
2024-02-15T20:02:39.809Z,10.37
2024-02-15T20:05:08.984Z,9.17
2024-02-15T20:07:38.190Z,9.70
2024-02-15T20:10:08.664Z,8.53
2024-02-15T20:12:36.034Z,8.10
2024-02-15T20:15:03.329Z,9.63
2024-02-15T20:17:30.396Z,9.33
2024-02-15T20:19:57.784Z,7.90
2024-02-15T20:22:24.263Z,7.53
2024-02-15T20:24:51.262Z,15.77
2024-02-15T20:27:22.127Z,77.33
2024-02-15T20:29:51.013Z,150.90
2024-02-15T20:32:19.815Z,65.57
2024-02-15T20:34:47.381Z,41.40
2024-02-15T20:37:14.783Z,28.73
2024-02-15T20:39:41.319Z,18.67
2024-02-15T20:42:08.296Z,13.10
2024-02-15T20:44:35.118Z,10.63
2024-02-15T20:47:05.221Z,10.27
2024-02-15T20:49:32.572Z,9.13
2024-02-15T20:51:59.759Z,9.50
2024-02-15T20:54:26.605Z,8.27
2024-02-15T20:56:53.411Z,10.03
2024-02-15T20:59:21.226Z,9.10
2024-02-15T21:01:49.119Z,8.13
2024-02-15T21:04:15.674Z,9.20
2024-02-15T21:06:42.388Z,8.37
2024-02-15T21:09:15.416Z,8.97
2024-02-15T21:11:45.008Z,8.80
2024-02-15T21:14:16.302Z,8.90
2024-02-15T21:16:43.091Z,9.27
2024-02-15T21:19:14.058Z,8.67
2024-02-15T21:21:44.538Z,9.07
2024-02-15T21:24:12.594Z,8.43
2024-02-15T21:26:49.212Z,8.60
2024-02-15T21:29:16.375Z,8.80
2024-02-15T21:31:44.254Z,8.70
2024-02-15T21:34:10.905Z,10.63
2024-02-15T21:36:37.625Z,9.60
2024-02-15T21:39:04.446Z,10.37
2024-02-15T21:41:31.069Z,8.57
2024-02-15T21:43:57.513Z,9.13
2024-02-15T21:46:23.952Z,8.77
2024-02-15T21:48:54.356Z,8.10
2024-02-15T21:51:23.425Z,8.13
2024-02-15T21:53:51.800Z,7.73
2024-02-15T21:56:20.701Z,8.40
2024-02-15T21:58:48.341Z,7.30
2024-02-15T22:01:15.122Z,8.07
2024-02-15T22:03:44.900Z,7.73
2024-02-15T22:06:14.114Z,7.40
2024-02-15T22:08:40.683Z,7.30
2024-02-15T22:11:07.574Z,6.90
2024-02-15T22:13:34.386Z,7.00
2024-02-15T22:16:00.815Z,7.07
2024-02-15T22:18:27.413Z,8.37
2024-02-15T22:20:54.018Z,8.77
2024-02-15T22:23:23.137Z,7.93
2024-02-15T22:25:52.654Z,8.13
2024-02-15T22:28:19.223Z,7.93
2024-02-15T22:30:45.785Z,7.90
2024-02-15T22:33:12.695Z,7.47
2024-02-15T22:35:39.255Z,7.80
2024-02-15T22:38:05.786Z,8.57
2024-02-15T22:40:32.298Z,7.30
2024-02-15T22:42:59.127Z,7.63
2024-02-15T22:45:26.720Z,7.87
2024-02-15T22:47:53.947Z,7.60
2024-02-15T22:50:20.799Z,8.80
2024-02-15T22:52:48.058Z,7.47
2024-02-15T22:55:16.765Z,8.47
2024-02-15T22:57:43.292Z,7.87
2024-02-15T23:00:14.631Z,7.60
2024-02-15T23:02:43.105Z,7.40
2024-02-15T23:05:10.303Z,7.80
2024-02-15T23:07:39.169Z,8.73
2024-02-15T23:10:08.042Z,8.00
2024-02-15T23:12:34.705Z,7.83
2024-02-15T23:15:02.555Z,8.37
2024-02-15T23:17:31.710Z,7.07
2024-02-15T23:19:58.356Z,7.20
2024-02-15T23:22:26.254Z,7.30
2024-02-15T23:24:52.802Z,6.83
2024-02-15T23:27:19.542Z,7.00
2024-02-15T23:29:46.061Z,6.93
2024-02-15T23:32:12.612Z,8.30
2024-02-15T23:34:39.912Z,6.90
2024-02-15T23:37:25.514Z,6.73
2024-02-15T23:40:12.424Z,6.50
2024-02-15T23:42:39.198Z,6.67
2024-02-15T23:45:06.222Z,7.47
2024-02-15T23:47:32.823Z,6.90
2024-02-15T23:50:00.088Z,6.70
2024-02-15T23:52:26.969Z,6.93
2024-02-15T23:54:53.969Z,7.07
2024-02-15T23:57:22.164Z,7.77
2024-02-15T23:59:50.923Z,7.80
